createdAt,value
2022-11-15T00:00:30.451Z,5.53
2022-11-15T00:03:53.900Z,5.68
2022-11-15T00:07:40.207Z,3.97
2022-11-15T00:10:58.678Z,5.35
2022-11-15T00:14:21.042Z,5.27
2022-11-15T00:17:44.706Z,6.07
2022-11-15T00:21:09.594Z,5.88
2022-11-15T00:24:31.864Z,6.45
2022-11-15T00:27:57.900Z,7.90
2022-11-15T00:31:20.528Z,4.53
2022-11-15T00:34:43.920Z,8.48
2022-11-15T00:38:06.093Z,7.38
2022-11-15T00:41:28.194Z,5.10
2022-11-15T00:44:50.659Z,5.87
2022-11-15T00:48:12.751Z,4.80
2022-11-15T00:51:37.195Z,5.93
2022-11-15T00:54:59.396Z,5.82
2022-11-15T00:58:22.016Z,5.85
2022-11-15T01:01:44.258Z,6.77
2022-11-15T01:05:08.185Z,4.85
2022-11-15T01:08:31.985Z,4.25
2022-11-15T01:11:54.843Z,6.18
2022-11-15T01:15:17.163Z,7.63
2022-11-15T01:18:39.523Z,5.97
2022-11-15T01:22:02.300Z,4.82
2022-11-15T01:25:25.994Z,3.95
2022-11-15T01:28:48.527Z,5.13
2022-11-15T01:32:10.868Z,6.40
2022-11-15T01:35:33.261Z,6.93
2022-11-15T01:38:56.711Z,7.95
2022-11-15T01:42:20.854Z,4.47
2022-11-15T01:45:43.526Z,6.43
2022-11-15T01:49:14.971Z,4.90
2022-11-15T01:52:40.273Z,6.97
2022-11-15T01:56:06.501Z,4.80
2022-11-15T01:59:31.312Z,5.40
2022-11-15T02:02:53.702Z,5.57
2022-11-15T02:06:17.258Z,4.63
2022-11-15T02:09:41.390Z,4.43
2022-11-15T02:13:04.616Z,4.03
2022-11-15T02:16:45.638Z,5.15
2022-11-15T02:20:46.618Z,3.80
2022-11-15T02:24:47.750Z,5.07
2022-11-15T02:28:43.781Z,5.03
2022-11-15T02:32:20.965Z,4.88
2022-11-15T02:35:55.599Z,3.97
2022-11-15T02:39:29.492Z,4.38
2022-11-15T02:43:17.021Z,4.47
2022-11-15T02:47:03.378Z,5.83
2022-11-15T02:50:32.410Z,4.43
2022-11-15T02:53:54.572Z,4.13
2022-11-15T02:57:25.520Z,4.40
2022-11-15T03:01:01.345Z,3.73
2022-11-15T03:04:40.490Z,3.08
2022-11-15T03:08:16.639Z,4.78
2022-11-15T03:11:46.676Z,4.82
2022-11-15T03:15:19.489Z,3.95
2022-11-15T03:18:47.813Z,4.57
2022-11-15T03:22:17.496Z,4.13
2022-11-15T03:25:50.765Z,3.97
2022-11-15T03:29:19.781Z,5.93
2022-11-15T03:32:48.805Z,4.15
2022-11-15T03:36:11.036Z,4.17
2022-11-15T03:39:33.405Z,5.60
2022-11-15T03:43:07.313Z,3.30
2022-11-15T03:46:36.297Z,5.13
2022-11-15T03:50:06.882Z,3.63
2022-11-15T03:53:31.980Z,3.73
2022-11-15T03:56:54.664Z,5.00
2022-11-15T04:00:18.626Z,3.65
2022-11-15T04:03:40.764Z,2.83
2022-11-15T04:07:02.983Z,3.55
2022-11-15T04:10:25.473Z,3.10
2022-11-15T04:13:47.376Z,5.35
2022-11-15T04:17:10.822Z,4.53
2022-11-15T04:20:51.253Z,3.92
2022-11-15T04:24:16.420Z,3.13
2022-11-15T04:27:38.295Z,4.77
2022-11-15T04:31:00.518Z,4.70
2022-11-15T04:34:23.905Z,3.92
2022-11-15T04:37:49.298Z,5.03
2022-11-15T04:41:11.667Z,7.25
2022-11-15T04:44:34.059Z,4.53
2022-11-15T04:47:55.958Z,5.80
2022-11-15T04:51:20.093Z,4.20
2022-11-15T04:54:43.209Z,4.28
2022-11-15T04:58:05.395Z,3.45
2022-11-15T05:01:27.740Z,5.97
2022-11-15T05:04:50.057Z,3.70
2022-11-15T05:08:13.283Z,6.32
2022-11-15T05:11:35.358Z,4.65
2022-11-15T05:14:57.079Z,4.75
2022-11-15T05:18:23.387Z,5.07
2022-11-15T05:21:46.341Z,4.15
2022-11-15T05:25:10.752Z,4.85
2022-11-15T05:28:33.480Z,3.22
2022-11-15T05:31:55.430Z,4.00
2022-11-15T05:35:28.047Z,3.63
2022-11-15T05:38:52.004Z,2.65
2022-11-15T05:42:17.885Z,4.30
2022-11-15T05:45:40.314Z,4.38
2022-11-15T05:49:02.966Z,3.33
2022-11-15T05:52:32.506Z,2.93
2022-11-15T05:55:54.806Z,3.72
2022-11-15T05:59:20.048Z,2.60
2022-11-15T06:02:42.059Z,3.58
2022-11-15T06:06:04.458Z,3.25
2022-11-15T06:09:26.594Z,3.97
2022-11-15T06:12:48.945Z,3.92
2022-11-15T06:16:12.294Z,3.35
2022-11-15T06:19:34.530Z,3.88
2022-11-15T06:23:00.270Z,4.20
2022-11-15T06:26:22.746Z,4.33
2022-11-15T06:29:44.780Z,4.47
2022-11-15T06:33:09.743Z,3.70
2022-11-15T06:36:31.829Z,3.88
2022-11-15T06:39:53.970Z,4.20
2022-11-15T06:43:16.548Z,3.43
2022-11-15T06:46:38.862Z,3.72
2022-11-15T06:50:02.342Z,3.70
2022-11-15T06:53:25.012Z,3.92
2022-11-15T06:56:46.765Z,4.00
2022-11-15T07:00:10.982Z,4.07
2022-11-15T07:03:34.311Z,3.00
2022-11-15T07:06:57.812Z,3.80
2022-11-15T07:10:20.157Z,3.50
2022-11-15T07:13:42.302Z,3.00
2022-11-15T07:17:06.969Z,3.20
2022-11-15T07:20:28.923Z,2.92
2022-11-15T07:23:52.342Z,4.15
2022-11-15T07:27:14.432Z,4.50
2022-11-15T07:30:38.926Z,2.78
2022-11-15T07:34:03.445Z,3.13
2022-11-15T07:37:25.217Z,3.58
2022-11-15T07:40:49.261Z,3.15
2022-11-15T07:44:11.299Z,3.65
2022-11-15T07:47:33.284Z,4.32
2022-11-15T07:50:55.118Z,3.17
2022-11-15T07:54:17.144Z,3.47
2022-11-15T07:57:40.699Z,3.45
2022-11-15T08:01:05.815Z,3.78
2022-11-15T08:04:28.492Z,4.03
2022-11-15T08:07:52.744Z,3.67
2022-11-15T08:11:15.568Z,3.88
2022-11-15T08:14:39.474Z,5.63
2022-11-15T08:18:04.787Z,4.40
2022-11-15T08:21:26.830Z,3.35
2022-11-15T08:24:49.037Z,2.97
2022-11-15T08:28:13.142Z,3.08
2022-11-15T08:31:38.021Z,4.05
2022-11-15T08:34:59.872Z,2.83
2022-11-15T08:38:21.825Z,2.80
2022-11-15T08:41:43.863Z,3.20
2022-11-15T08:45:06.824Z,3.42
2022-11-15T08:48:31.623Z,2.97
2022-11-15T08:51:53.932Z,2.33
2022-11-15T08:55:17.632Z,3.10
2022-11-15T08:58:39.867Z,4.17
2022-11-15T09:02:01.966Z,3.35
2022-11-15T09:05:25.582Z,38.67
2022-11-15T09:08:51.917Z,122.80
2022-11-15T09:12:13.855Z,100.13
2022-11-15T09:15:36.674Z,62.83
2022-11-15T09:18:58.531Z,42.95
2022-11-15T09:22:22.178Z,34.67
2022-11-15T09:25:47.146Z,33.80
2022-11-15T09:29:09.292Z,27.27
2022-11-15T09:32:36.406Z,36.33
2022-11-15T09:36:06.987Z,27.33
2022-11-15T09:39:30.269Z,26.77
2022-11-15T09:43:14.474Z,23.02
2022-11-15T09:46:56.309Z,23.83
2022-11-15T09:50:34.052Z,24.60
2022-11-15T09:57:22.433Z,26.70
2022-11-15T10:00:52.862Z,18.13
2022-11-15T10:04:05.528Z,17.33
2022-11-15T10:07:22.432Z,20.47
2022-11-15T10:10:37.537Z,14.55
2022-11-15T10:13:48.825Z,11.75
2022-11-15T10:17:20.505Z,16.13
2022-11-15T10:20:27.509Z,10.73
2022-11-15T10:23:33.892Z,12.47
2022-11-15T10:26:37.449Z,14.15
2022-11-15T10:29:48.493Z,16.42
2022-11-15T10:32:52.283Z,10.25
2022-11-15T10:36:22.229Z,13.93
2022-11-15T10:39:27.083Z,10.07
2022-11-15T10:42:31.845Z,7.03
2022-11-15T10:45:37.014Z,6.32
2022-11-15T10:48:41.441Z,10.55
2022-11-15T10:51:50.172Z,10.20
2022-11-15T10:55:00.367Z,6.40
2022-11-15T10:58:22.348Z,9.90
2022-11-15T11:01:30.960Z,8.75
2022-11-15T11:04:52.513Z,7.93
2022-11-15T11:08:02.148Z,12.45
2022-11-15T11:11:08.642Z,9.50
2022-11-15T11:14:19.877Z,7.95
2022-11-15T11:17:53.574Z,7.70
2022-11-15T11:21:05.228Z,8.23
2022-11-15T11:24:18.088Z,6.13
2022-11-15T11:27:44.143Z,7.47
2022-11-15T11:31:02.669Z,7.82
2022-11-15T11:34:22.672Z,8.48
2022-11-15T11:37:39.139Z,7.45
2022-11-15T11:40:54.826Z,9.00
2022-11-15T11:44:19.178Z,3.90
2022-11-15T11:47:27.174Z,4.60
2022-11-15T11:50:33.149Z,10.20
2022-11-15T11:53:48.421Z,5.70
2022-11-15T11:56:55.139Z,6.32
2022-11-15T12:00:07.599Z,6.13
2022-11-15T12:03:30.755Z,6.05
2022-11-15T12:06:43.647Z,7.07
2022-11-15T12:09:57.779Z,6.45
2022-11-15T12:13:11.048Z,6.88
2022-11-15T12:16:21.653Z,6.60
2022-11-15T12:19:25.570Z,6.60
2022-11-15T12:22:42.150Z,4.03
2022-11-15T12:25:52.513Z,6.07
2022-11-15T12:29:07.842Z,7.90
2022-11-15T12:32:29.027Z,6.97
2022-11-15T12:35:39.744Z,5.03
2022-11-15T12:38:58.557Z,7.53
2022-11-15T12:42:42.128Z,4.82
2022-11-15T12:45:47.964Z,8.45
2022-11-15T12:48:56.202Z,5.60
2022-11-15T12:52:11.109Z,8.68
2022-11-15T12:55:35.758Z,6.03
2022-11-15T12:58:47.159Z,8.90
2022-11-15T13:02:04.031Z,7.93
2022-11-15T13:05:59.123Z,6.60
2022-11-15T13:09:02.887Z,8.18
2022-11-15T13:12:14.508Z,6.57
2022-11-15T13:15:54.031Z,6.00
2022-11-15T13:19:09.606Z,7.50
2022-11-15T13:22:30.772Z,7.13
2022-11-15T13:26:12.335Z,7.47
2022-11-15T13:29:21.830Z,6.57
2022-11-15T13:32:26.673Z,5.22
2022-11-15T13:35:38.849Z,4.47
2022-11-15T13:38:44.097Z,6.10
2022-11-15T13:41:52.014Z,9.15
2022-11-15T13:45:03.311Z,7.25
2022-11-15T13:48:08.185Z,6.20
2022-11-15T13:51:25.779Z,5.25
2022-11-15T13:54:36.067Z,6.30
2022-11-15T13:57:46.381Z,6.13
2022-11-15T14:01:02.640Z,6.03
2022-11-15T14:04:06.280Z,5.32
2022-11-15T14:07:21.422Z,6.28
2022-11-15T14:10:32.047Z,4.47
2022-11-15T14:13:36.867Z,5.60
2022-11-15T14:16:44.699Z,5.32
2022-11-15T14:19:49.202Z,7.68
2022-11-15T14:22:58.171Z,6.55
2022-11-15T14:26:02.103Z,6.07
2022-11-15T14:29:27.292Z,8.75
2022-11-15T14:32:47.716Z,6.63
2022-11-15T14:35:52.287Z,7.30
2022-11-15T14:38:56.351Z,10.35
2022-11-15T14:41:59.968Z,4.93
2022-11-15T14:45:03.823Z,5.38
2022-11-15T14:48:09.326Z,6.50
2022-11-15T14:51:15.858Z,6.75
2022-11-15T14:54:19.779Z,7.63
2022-11-15T14:57:23.675Z,6.50
2022-11-15T15:00:32.378Z,5.30
2022-11-15T15:03:42.296Z,4.38
2022-11-15T15:06:46.173Z,4.68
2022-11-15T15:09:50.152Z,5.32
2022-11-15T15:12:53.751Z,5.63
2022-11-15T15:15:57.324Z,5.25
2022-11-15T15:19:02.371Z,4.65
2022-11-15T15:22:06.203Z,5.68
2022-11-15T15:25:24.269Z,5.57
2022-11-15T15:28:34.078Z,5.63
2022-11-15T15:31:38.312Z,4.10
2022-11-15T15:34:43.146Z,4.38
2022-11-15T15:37:48.953Z,5.05
2022-11-15T15:40:52.377Z,5.95
2022-11-15T15:43:55.911Z,3.40
2022-11-15T15:47:00.347Z,5.22
2022-11-15T15:50:06.878Z,3.33
2022-11-15T15:53:11.571Z,4.57
2022-11-15T15:56:15.315Z,3.65
2022-11-15T15:59:18.706Z,5.10
2022-11-15T16:02:22.514Z,5.38
2022-11-15T16:05:27.275Z,5.10
2022-11-15T16:08:47.606Z,3.85
2022-11-15T16:11:55.551Z,5.43
2022-11-15T16:14:59.601Z,5.57
2022-11-15T16:18:04.344Z,8.20
2022-11-15T16:21:10.705Z,4.65
2022-11-15T16:24:14.155Z,9.18
2022-11-15T16:27:21.365Z,7.95
2022-11-15T16:30:25.660Z,4.23
2022-11-15T16:33:29.275Z,5.05
2022-11-15T16:36:36.875Z,4.28
2022-11-15T16:39:40.423Z,5.70
2022-11-15T16:42:44.040Z,3.85
2022-11-15T16:45:47.925Z,3.97
2022-11-15T16:48:52.428Z,5.43
2022-11-15T16:51:57.330Z,4.47
2022-11-15T16:55:00.670Z,4.18
2022-11-15T16:58:04.308Z,3.55
2022-11-15T17:01:08.986Z,7.27
2022-11-15T17:04:13.482Z,4.50
2022-11-15T17:07:18.465Z,3.88
2022-11-15T17:10:23.309Z,4.03
2022-11-15T17:13:26.732Z,3.85
2022-11-15T17:16:30.611Z,4.80
2022-11-15T17:19:34.180Z,6.00
2022-11-15T17:22:39.157Z,3.78
2022-11-15T17:25:42.987Z,7.57
2022-11-15T17:28:46.756Z,6.30
2022-11-15T17:31:50.180Z,12.60
2022-11-15T17:34:53.653Z,9.82
2022-11-15T17:37:58.374Z,6.57
2022-11-15T17:41:04.124Z,7.05
2022-11-15T17:44:08.005Z,6.20
2022-11-15T17:47:11.507Z,7.27
2022-11-15T17:50:15.387Z,5.53
2022-11-15T17:53:20.222Z,6.45
2022-11-15T17:56:28.268Z,6.15
2022-11-15T17:59:31.986Z,8.10
2022-11-15T18:02:35.903Z,5.00
2022-11-15T18:05:41.063Z,9.35
2022-11-15T18:08:48.289Z,5.25
2022-11-15T18:11:53.532Z,8.77
2022-11-15T18:14:58.214Z,8.05
2022-11-15T18:18:02.338Z,6.50
2022-11-15T18:21:08.392Z,5.90
2022-11-15T18:24:14.589Z,5.30
2022-11-15T18:27:18.432Z,6.97
2022-11-15T18:30:22.823Z,6.88
2022-11-15T18:33:26.678Z,11.00
2022-11-15T18:36:32.116Z,6.38
2022-11-15T18:39:37.901Z,7.65
2022-11-15T18:42:41.372Z,8.10
2022-11-15T18:45:46.804Z,9.55
2022-11-15T18:48:53.072Z,11.83
2022-11-15T18:51:56.997Z,10.80
2022-11-15T18:55:02.268Z,8.07
2022-11-15T18:58:05.699Z,15.40
2022-11-15T19:01:13.192Z,20.52
2022-11-15T19:04:20.006Z,8.80
2022-11-15T19:07:23.799Z,13.40
2022-11-15T19:10:28.562Z,12.18
2022-11-15T19:13:32.536Z,12.20
2022-11-15T19:16:38.487Z,11.32
2022-11-15T19:19:41.975Z,11.80
2022-11-15T19:22:45.823Z,10.85
2022-11-15T19:25:58.811Z,9.82
2022-11-15T19:29:03.700Z,10.45
2022-11-15T19:32:07.395Z,10.88
2022-11-15T19:35:11.028Z,27.73
2022-11-15T19:38:14.961Z,270.58
2022-11-15T19:41:25.086Z,177.38
2022-11-15T19:44:29.077Z,111.70
2022-11-15T19:47:32.580Z,102.50
2022-11-15T19:50:38.513Z,64.90
2022-11-15T19:53:43.269Z,51.45
2022-11-15T19:56:48.482Z,74.30
2022-11-15T19:59:51.926Z,55.00
2022-11-15T20:02:55.664Z,56.03
2022-11-15T20:06:03.597Z,56.30
2022-11-15T20:09:07.629Z,56.05
2022-11-15T20:12:12.465Z,41.67
2022-11-15T20:15:16.294Z,35.28
2022-11-15T20:18:20.439Z,40.80
2022-11-15T20:21:24.101Z,31.47
2022-11-15T20:24:28.034Z,40.30
2022-11-15T20:27:32.843Z,30.70
2022-11-15T20:30:37.802Z,32.03
2022-11-15T20:33:41.849Z,28.67
2022-11-15T20:36:45.140Z,31.07
2022-11-15T20:39:48.917Z,32.58
2022-11-15T20:42:55.703Z,29.52
2022-11-15T20:45:59.531Z,31.60
2022-11-15T20:49:02.817Z,24.02
2022-11-15T20:52:06.523Z,29.27
2022-11-15T20:55:10.847Z,26.75
2022-11-15T20:58:16.824Z,30.55
2022-11-15T21:01:27.362Z,25.40
2022-11-15T21:04:30.918Z,23.75
2022-11-15T21:07:34.317Z,27.27
2022-11-15T21:10:55.854Z,21.98
2022-11-15T21:14:02.050Z,25.65
2022-11-15T21:17:09.578Z,19.23
2022-11-15T21:20:13.664Z,25.83
2022-11-15T21:23:17.666Z,17.70
2022-11-15T21:26:21.083Z,28.08
2022-11-15T21:29:26.288Z,20.48
2022-11-15T21:32:30.399Z,23.42
2022-11-15T21:35:34.648Z,20.98
2022-11-15T21:38:38.266Z,19.70
2022-11-15T21:41:41.900Z,21.67
2022-11-15T21:44:47.169Z,18.48
2022-11-15T21:47:50.761Z,18.38
2022-11-15T21:50:57.598Z,17.35
2022-11-15T21:54:01.923Z,16.17
2022-11-15T21:57:05.209Z,15.10
2022-11-15T22:00:29.824Z,18.70
2022-11-15T22:04:45.128Z,18.00
2022-11-15T22:07:48.906Z,14.50
2022-11-15T22:10:53.775Z,14.50
2022-11-15T22:13:57.833Z,18.63
2022-11-15T22:17:02.687Z,16.58
2022-11-15T22:20:37.290Z,15.18
2022-11-15T22:23:35.547Z,15.65
2022-11-15T22:26:39.404Z,12.83
2022-11-15T22:29:43.410Z,23.73
2022-11-15T22:32:49.353Z,16.73
2022-11-15T22:35:54.550Z,16.50
2022-11-15T22:38:58.745Z,17.13
2022-11-15T22:42:02.496Z,19.60
2022-11-15T22:45:08.025Z,13.43
2022-11-15T22:48:13.256Z,14.40
2022-11-15T22:51:17.168Z,15.20
2022-11-15T22:54:21.227Z,16.10
2022-11-15T22:57:25.225Z,15.23
2022-11-15T23:00:28.819Z,14.20
2022-11-15T23:03:35.498Z,16.50
2022-11-15T23:06:39.184Z,19.38
2022-11-15T23:09:46.517Z,19.27
2022-11-15T23:13:11.867Z,14.33
2022-11-15T23:16:25.839Z,15.75
2022-11-15T23:19:31.343Z,15.13
2022-11-15T23:22:50.568Z,15.32
2022-11-15T23:26:00.212Z,14.40
2022-11-15T23:29:04.323Z,13.60
2022-11-15T23:32:25.519Z,12.32
2022-11-15T23:35:30.914Z,13.90
2022-11-15T23:38:37.289Z,14.23
2022-11-15T23:41:41.265Z,19.20
2022-11-15T23:44:44.875Z,11.93
2022-11-15T23:47:49.002Z,15.95
2022-11-15T23:50:54.015Z,15.93
2022-11-15T23:53:58.350Z,13.50
2022-11-15T23:57:01.934Z,12.80
